TVS3217 LPPS-LKPR
Flight info
| Callsign | TVS3217 |
|---|---|
| Flight time | 4h 12m |
| Altitude | 34000 |
| Route | DEGUN DCT ROLAR DCT TUNAV DCT DEMOS DCT LOTEE DCT AZFIC UN741 NTS DCT GONEK DCT TABOV UN858 OQQAL DCT RANUX/N0445F330 DCT VALEK DCT LIPNI UN858 LIMGO/N0447F350 DCT BOMBI DCT BOREP DCT TONSU Z35 ODOMO DCT LOMKI |
| Aircraft | B738/M-SDE3FGHIJ1RWXY/LB1 |
Departure
| Time | 2026-04-10 13:13 |
|---|---|
| Airport | Porto Santo Airport (LPPS) |
Arrival
| Time | 2026-04-10 17:25 |
|---|---|
| Airport | Václav Havel Airport Prague (LKPR) |
| Time | Latitude | Longitude | Altitude | Speed | Heading |
|---|---|---|---|---|---|
| 2026-04-10 12:30 | 33.07100 | -16.34665 | 248 ft | 0 kts | 221° |
| 2026-04-10 13:06 | 33.07096 | -16.34672 | 248 ft | 3 kts | 237° |
| 2026-04-10 13:06 | 33.07080 | -16.34708 | 248 ft | 6 kts | 217° |
| 2026-04-10 13:07 | 33.07040 | -16.34715 | 248 ft | 6 kts | 179° |
| 2026-04-10 13:07 | 33.06999 | -16.34717 | 248 ft | 6 kts | 194° |
| 2026-04-10 13:07 | 33.06971 | -16.34750 | 248 ft | 6 kts | 248° |
| 2026-04-10 13:07 | 33.06965 | -16.34798 | 248 ft | 6 kts | 265° |
| 2026-04-10 13:08 | 33.06962 | -16.34846 | 248 ft | 6 kts | 267° |
| 2026-04-10 13:08 | 33.06961 | -16.34893 | 248 ft | 6 kts | 270° |
| 2026-04-10 13:08 | 33.06959 | -16.34940 | 250 ft | 6 kts | 255° |
| 2026-04-10 13:09 | 33.06848 | -16.34974 | 250 ft | 11 kts | 176° |
| 2026-04-10 13:09 | 33.06762 | -16.34970 | 247 ft | 15 kts | 178° |
| 2026-04-10 13:09 | 33.06644 | -16.34967 | 244 ft | 18 kts | 177° |
| 2026-04-10 13:09 | 33.06516 | -16.34962 | 244 ft | 18 kts | 178° |
| 2026-04-10 13:10 | 33.06387 | -16.34957 | 243 ft | 20 kts | 178° |
| 2026-04-10 13:10 | 33.06243 | -16.34951 | 242 ft | 21 kts | 178° |
| 2026-04-10 13:10 | 33.06146 | -16.34933 | 244 ft | 10 kts | 143° |
| 2026-04-10 13:10 | 33.06100 | -16.34877 | 245 ft | 9 kts | 133° |
| 2026-04-10 13:11 | 33.06042 | -16.34836 | 245 ft | 10 kts | 174° |
| 2026-04-10 13:11 | 33.05999 | -16.34888 | 246 ft | 10 kts | 269° |
| 2026-04-10 13:11 | 33.06017 | -16.34942 | 247 ft | 6 kts | 343° |
| 2026-04-10 13:11 | 33.06062 | -16.34944 | 246 ft | 7 kts | 358° |
| 2026-04-10 13:12 | 33.06220 | -16.34950 | 242 ft | 53 kts | 358° |
| 2026-04-10 13:12 | 33.06803 | -16.34972 | 249 ft | 113 kts | 358° |
| 2026-04-10 13:12 | 33.07768 | -16.35007 | 272 ft | 161 kts | 357° |
| 2026-04-10 13:12 | 33.08914 | -16.35054 | 855 ft | 166 kts | 356° |
| 2026-04-10 13:13 | 33.10035 | -16.35099 | 1944 ft | 157 kts | 356° |
| 2026-04-10 13:13 | 33.11169 | -16.35161 | 2216 ft | 175 kts | 356° |
| 2026-04-10 13:13 | 33.12445 | -16.35223 | 2360 ft | 191 kts | 356° |
| 2026-04-10 13:13 | 33.13824 | -16.35286 | 2565 ft | 201 kts | 358° |
| 2026-04-10 13:14 | 33.15260 | -16.35349 | 2851 ft | 213 kts | 358° |
| 2026-04-10 13:14 | 33.16817 | -16.35418 | 3042 ft | 230 kts | 358° |
| 2026-04-10 13:14 | 33.18408 | -16.35164 | 3509 ft | 238 kts | 24° |
| 2026-04-10 13:14 | 33.19677 | -16.33861 | 4058 ft | 246 kts | 48° |
| 2026-04-10 13:15 | 33.20549 | -16.32083 | 4680 ft | 252 kts | 60° |
| 2026-04-10 13:15 | 33.21215 | -16.30134 | 5245 ft | 255 kts | 63° |
| 2026-04-10 13:15 | 33.21837 | -16.28153 | 5869 ft | 255 kts | 64° |
| 2026-04-10 13:15 | 33.22455 | -16.26167 | 6493 ft | 255 kts | 64° |
| 2026-04-10 13:16 | 33.23075 | -16.24191 | 7103 ft | 254 kts | 63° |
| 2026-04-10 13:16 | 33.23702 | -16.22214 | 7682 ft | 255 kts | 63° |
| 2026-04-10 13:16 | 33.24335 | -16.20230 | 8302 ft | 255 kts | 63° |
| 2026-04-10 13:16 | 33.24969 | -16.18253 | 8948 ft | 255 kts | 63° |
| 2026-04-10 13:17 | 33.25605 | -16.16278 | 9610 ft | 255 kts | 63° |
| 2026-04-10 13:17 | 33.26246 | -16.14295 | 10240 ft | 256 kts | 62° |
| 2026-04-10 13:17 | 33.26907 | -16.12260 | 10487 ft | 272 kts | 62° |
| 2026-04-10 13:17 | 33.27620 | -16.10080 | 10634 ft | 291 kts | 63° |
| 2026-04-10 13:18 | 33.28377 | -16.07759 | 10766 ft | 309 kts | 63° |
| 2026-04-10 13:18 | 33.29176 | -16.05301 | 10898 ft | 325 kts | 63° |
| 2026-04-10 13:18 | 33.30003 | -16.02742 | 11254 ft | 333 kts | 63° |
| 2026-04-10 13:18 | 33.30840 | -16.00140 | 11794 ft | 336 kts | 63° |
| 2026-04-10 13:19 | 33.31681 | -15.97524 | 12357 ft | 339 kts | 63° |
| 2026-04-10 13:19 | 33.32532 | -15.94880 | 12898 ft | 342 kts | 63° |
| 2026-04-10 13:19 | 33.33392 | -15.92212 | 13465 ft | 345 kts | 63° |
| 2026-04-10 13:19 | 33.34259 | -15.89521 | 14026 ft | 349 kts | 63° |
| 2026-04-10 13:20 | 33.35134 | -15.86804 | 14547 ft | 351 kts | 63° |
| 2026-04-10 13:20 | 33.36014 | -15.84069 | 15108 ft | 354 kts | 62° |
| 2026-04-10 13:20 | 33.36899 | -15.81314 | 15672 ft | 356 kts | 62° |
| 2026-04-10 13:20 | 33.37791 | -15.78539 | 16270 ft | 358 kts | 62° |
| 2026-04-10 13:21 | 33.38686 | -15.75752 | 16843 ft | 360 kts | 62° |
| 2026-04-10 13:21 | 33.39587 | -15.72945 | 17391 ft | 363 kts | 62° |
| 2026-04-10 13:21 | 33.40484 | -15.70148 | 17923 ft | 367 kts | 62° |
| 2026-04-10 13:21 | 33.41602 | -15.67438 | 18416 ft | 359 kts | 46° |
| 2026-04-10 13:22 | 33.43316 | -15.65322 | 18919 ft | 352 kts | 34° |
| 2026-04-10 13:22 | 33.45348 | -15.63750 | 19462 ft | 346 kts | 23° |
| 2026-04-10 13:22 | 33.47510 | -15.62494 | 20078 ft | 344 kts | 21° |
| 2026-04-10 13:22 | 33.49688 | -15.61287 | 20544 ft | 346 kts | 21° |
| 2026-04-10 13:23 | 33.51886 | -15.60080 | 21011 ft | 348 kts | 21° |
| 2026-04-10 13:23 | 33.54089 | -15.58864 | 21512 ft | 349 kts | 20° |
| 2026-04-10 13:23 | 33.56294 | -15.57637 | 21993 ft | 350 kts | 20° |
| 2026-04-10 13:23 | 33.58505 | -15.56397 | 22458 ft | 351 kts | 20° |
| 2026-04-10 13:24 | 33.60721 | -15.55149 | 22905 ft | 353 kts | 20° |
| 2026-04-10 13:24 | 33.62948 | -15.53889 | 23345 ft | 354 kts | 20° |
| 2026-04-10 13:24 | 33.65181 | -15.52623 | 23759 ft | 356 kts | 20° |
| 2026-04-10 13:24 | 33.67420 | -15.51351 | 24061 ft | 358 kts | 20° |
| 2026-04-10 13:25 | 33.69663 | -15.50074 | 24228 ft | 354 kts | 20° |
| 2026-04-10 13:25 | 33.71899 | -15.48801 | 24464 ft | 358 kts | 20° |
| 2026-04-10 13:25 | 33.74157 | -15.47517 | 24706 ft | 361 kts | 20° |
| 2026-04-10 13:25 | 33.76435 | -15.46219 | 24973 ft | 364 kts | 21° |
| 2026-04-10 13:26 | 33.77959 | -15.45351 | 25145 ft | 366 kts | 21° |
| 2026-04-10 13:26 | 33.80264 | -15.44036 | 25468 ft | 367 kts | 21° |
| 2026-04-10 13:26 | 33.82608 | -15.42698 | 25811 ft | 368 kts | 21° |
| 2026-04-10 13:26 | 33.84898 | -15.41390 | 26120 ft | 370 kts | 21° |
| 2026-04-10 13:27 | 33.87223 | -15.40060 | 26404 ft | 372 kts | 21° |
| 2026-04-10 13:27 | 33.89567 | -15.38720 | 26676 ft | 374 kts | 21° |
| 2026-04-10 13:27 | 33.91918 | -15.37375 | 26946 ft | 375 kts | 22° |
| 2026-04-10 13:27 | 33.94282 | -15.36022 | 27229 ft | 377 kts | 22° |
| 2026-04-10 13:28 | 33.96655 | -15.34662 | 27501 ft | 378 kts | 22° |
| 2026-04-10 13:28 | 33.99037 | -15.33296 | 27750 ft | 380 kts | 22° |
| 2026-04-10 13:28 | 34.01414 | -15.31933 | 27994 ft | 382 kts | 22° |
| 2026-04-10 13:28 | 34.03815 | -15.30555 | 28242 ft | 383 kts | 22° |
| 2026-04-10 13:29 | 34.06225 | -15.29171 | 28503 ft | 384 kts | 22° |
| 2026-04-10 13:29 | 34.08634 | -15.27786 | 28835 ft | 383 kts | 22° |
| 2026-04-10 13:29 | 34.11037 | -15.26403 | 29248 ft | 381 kts | 22° |
| 2026-04-10 13:29 | 34.13423 | -15.25030 | 29658 ft | 379 kts | 23° |
| 2026-04-10 13:30 | 34.15801 | -15.23661 | 30006 ft | 378 kts | 23° |
| 2026-04-10 13:30 | 34.18173 | -15.22295 | 30319 ft | 378 kts | 23° |
| 2026-04-10 13:30 | 34.20539 | -15.20930 | 30626 ft | 376 kts | 23° |
| 2026-04-10 13:30 | 34.22855 | -15.19449 | 30924 ft | 376 kts | 26° |
| 2026-04-10 13:31 | 34.25129 | -15.17883 | 31200 ft | 376 kts | 26° |
| 2026-04-10 13:31 | 34.27390 | -15.16298 | 31476 ft | 375 kts | 26° |
| 2026-04-10 13:31 | 34.29644 | -15.14711 | 31766 ft | 374 kts | 26° |
| 2026-04-10 13:31 | 34.31894 | -15.13128 | 31946 ft | 376 kts | 26° |
| 2026-04-10 13:32 | 34.34129 | -15.11559 | 32119 ft | 377 kts | 26° |
| 2026-04-10 13:32 | 34.36396 | -15.09968 | 32411 ft | 375 kts | 26° |
| 2026-04-10 13:32 | 34.38647 | -15.08391 | 32753 ft | 373 kts | 26° |
| 2026-04-10 13:32 | 34.40889 | -15.06821 | 33036 ft | 372 kts | 26° |
| 2026-04-10 13:33 | 34.43132 | -15.05251 | 33205 ft | 373 kts | 26° |
| 2026-04-10 13:33 | 34.45391 | -15.03671 | 33274 ft | 377 kts | 26° |
| 2026-04-10 13:33 | 34.47670 | -15.02076 | 33377 ft | 379 kts | 26° |
| 2026-04-10 13:33 | 34.49958 | -15.00473 | 33557 ft | 380 kts | 26° |
| 2026-04-10 13:34 | 34.52192 | -14.98906 | 33811 ft | 378 kts | 26° |
| 2026-04-10 13:34 | 34.54466 | -14.97310 | 34084 ft | 377 kts | 26° |
| 2026-04-10 13:34 | 34.59033 | -14.94104 | 34090 ft | 380 kts | 26° |
| 2026-04-10 13:35 | 34.63578 | -14.90906 | 34089 ft | 374 kts | 26° |
| 2026-04-10 13:35 | 34.68057 | -14.87750 | 34076 ft | 370 kts | 26° |
| 2026-04-10 13:36 | 34.72488 | -14.84627 | 34092 ft | 369 kts | 26° |
| 2026-04-10 13:36 | 34.76975 | -14.81465 | 34096 ft | 376 kts | 26° |
| 2026-04-10 13:37 | 34.81516 | -14.78257 | 34082 ft | 379 kts | 26° |
| 2026-04-10 13:37 | 34.86054 | -14.75045 | 34068 ft | 380 kts | 26° |
| 2026-04-10 13:38 | 34.90623 | -14.71807 | 34083 ft | 380 kts | 26° |
| 2026-04-10 13:38 | 34.95198 | -14.68561 | 34080 ft | 380 kts | 26° |
| 2026-04-10 13:39 | 34.99769 | -14.65313 | 34083 ft | 380 kts | 26° |
| 2026-04-10 13:39 | 35.04325 | -14.62072 | 34077 ft | 379 kts | 26° |
| 2026-04-10 13:40 | 35.08874 | -14.58832 | 34081 ft | 378 kts | 26° |
| 2026-04-10 13:40 | 35.13416 | -14.55593 | 34109 ft | 377 kts | 26° |
| 2026-04-10 13:41 | 35.17930 | -14.52369 | 34081 ft | 374 kts | 26° |
| 2026-04-10 13:41 | 35.22414 | -14.49162 | 34072 ft | 372 kts | 26° |
| 2026-04-10 13:42 | 35.26871 | -14.45971 | 34072 ft | 370 kts | 26° |
| 2026-04-10 13:42 | 35.31311 | -14.42788 | 34072 ft | 369 kts | 26° |
| 2026-04-10 13:43 | 35.35735 | -14.39613 | 34077 ft | 368 kts | 26° |
| 2026-04-10 13:43 | 35.40162 | -14.36433 | 34069 ft | 369 kts | 26° |
| 2026-04-10 13:44 | 35.44604 | -14.33237 | 34072 ft | 372 kts | 26° |
| 2026-04-10 13:44 | 35.49080 | -14.30013 | 34068 ft | 374 kts | 26° |
| 2026-04-10 13:45 | 35.53581 | -14.26765 | 34074 ft | 376 kts | 26° |
| 2026-04-10 13:45 | 35.58098 | -14.23502 | 34076 ft | 377 kts | 26° |
| 2026-04-10 13:46 | 35.62623 | -14.20227 | 34128 ft | 376 kts | 27° |
| 2026-04-10 13:46 | 35.67072 | -14.17001 | 34046 ft | 368 kts | 27° |
| 2026-04-10 13:47 | 35.71488 | -14.13799 | 34063 ft | 369 kts | 27° |
| 2026-04-10 13:47 | 35.75896 | -14.10599 | 34074 ft | 371 kts | 27° |
| 2026-04-10 13:48 | 35.80357 | -14.07356 | 34071 ft | 373 kts | 27° |
| 2026-04-10 13:48 | 35.84840 | -14.04092 | 34066 ft | 375 kts | 27° |
| 2026-04-10 13:49 | 35.89336 | -14.00814 | 34066 ft | 376 kts | 27° |
| 2026-04-10 13:49 | 35.93789 | -13.97562 | 34037 ft | 377 kts | 27° |
| 2026-04-10 13:50 | 35.98301 | -13.94264 | 34067 ft | 378 kts | 27° |
| 2026-04-10 13:50 | 36.02820 | -13.90956 | 34066 ft | 378 kts | 27° |
| 2026-04-10 13:51 | 36.07351 | -13.87634 | 34062 ft | 379 kts | 27° |
| 2026-04-10 13:51 | 36.11888 | -13.84304 | 34101 ft | 378 kts | 27° |
| 2026-04-10 13:52 | 36.16397 | -13.80988 | 34072 ft | 376 kts | 27° |
| 2026-04-10 13:52 | 36.20878 | -13.77690 | 34041 ft | 374 kts | 27° |
| 2026-04-10 13:53 | 36.25335 | -13.74405 | 34052 ft | 372 kts | 27° |
| 2026-04-10 13:53 | 36.29783 | -13.71122 | 34056 ft | 371 kts | 27° |
| 2026-04-10 13:54 | 36.34213 | -13.67848 | 34058 ft | 371 kts | 27° |
| 2026-04-10 13:54 | 36.38643 | -13.64570 | 34060 ft | 371 kts | 27° |
| 2026-04-10 13:55 | 36.43078 | -13.61285 | 34054 ft | 371 kts | 27° |
| 2026-04-10 13:55 | 36.47488 | -13.58013 | 34046 ft | 372 kts | 28° |
| 2026-04-10 13:56 | 36.51945 | -13.54702 | 34065 ft | 374 kts | 28° |
| 2026-04-10 13:56 | 36.56427 | -13.51368 | 34064 ft | 376 kts | 28° |
| 2026-04-10 13:57 | 36.60951 | -13.47997 | 34077 ft | 377 kts | 28° |
| 2026-04-10 13:57 | 36.65444 | -13.44644 | 34054 ft | 376 kts | 28° |
| 2026-04-10 13:58 | 36.69919 | -13.41300 | 34050 ft | 374 kts | 28° |
| 2026-04-10 13:58 | 36.74370 | -13.37971 | 34047 ft | 373 kts | 28° |
| 2026-04-10 13:59 | 36.78793 | -13.34657 | 34052 ft | 373 kts | 28° |
| 2026-04-10 13:59 | 36.83247 | -13.31316 | 34049 ft | 374 kts | 28° |
| 2026-04-10 14:00 | 36.87713 | -13.27963 | 34056 ft | 375 kts | 28° |
| 2026-04-10 14:00 | 36.92183 | -13.24600 | 34050 ft | 376 kts | 28° |
| 2026-04-10 14:01 | 36.96666 | -13.21223 | 34045 ft | 377 kts | 28° |
| 2026-04-10 14:01 | 37.01145 | -13.17845 | 34038 ft | 377 kts | 28° |
| 2026-04-10 14:02 | 37.05647 | -13.14444 | 34046 ft | 378 kts | 28° |
| 2026-04-10 14:02 | 37.10160 | -13.11031 | 34053 ft | 380 kts | 29° |
| 2026-04-10 14:03 | 37.14669 | -13.07614 | 34045 ft | 378 kts | 29° |
| 2026-04-10 14:03 | 37.19166 | -13.04202 | 34038 ft | 377 kts | 29° |
| 2026-04-10 14:04 | 37.23650 | -13.00796 | 34000 ft | 376 kts | 29° |
| 2026-04-10 14:05 | 37.30285 | -12.95747 | 34049 ft | 376 kts | 29° |
| 2026-04-10 14:05 | 37.34761 | -12.92336 | 34049 ft | 377 kts | 29° |
| 2026-04-10 14:06 | 37.39252 | -12.88908 | 34034 ft | 378 kts | 29° |
| 2026-04-10 14:06 | 37.43749 | -12.85470 | 34045 ft | 379 kts | 29° |
| 2026-04-10 14:07 | 37.48260 | -12.82017 | 34043 ft | 380 kts | 29° |
| 2026-04-10 14:07 | 37.52779 | -12.78552 | 34035 ft | 381 kts | 30° |
| 2026-04-10 14:08 | 37.57283 | -12.75094 | 34042 ft | 383 kts | 30° |
| 2026-04-10 14:08 | 37.61828 | -12.71600 | 34041 ft | 383 kts | 30° |
| 2026-04-10 14:09 | 37.66380 | -12.68095 | 34037 ft | 383 kts | 30° |
| 2026-04-10 14:09 | 37.70924 | -12.64591 | 34030 ft | 382 kts | 30° |
| 2026-04-10 14:10 | 37.75460 | -12.61088 | 34040 ft | 382 kts | 30° |
| 2026-04-10 14:10 | 37.79993 | -12.57583 | 34034 ft | 381 kts | 30° |
| 2026-04-10 14:11 | 37.84514 | -12.54081 | 34024 ft | 381 kts | 30° |
| 2026-04-10 14:11 | 37.89030 | -12.50579 | 34032 ft | 380 kts | 30° |
| 2026-04-10 14:12 | 37.93538 | -12.47077 | 34035 ft | 380 kts | 30° |
| 2026-04-10 14:12 | 37.98040 | -12.43575 | 34029 ft | 380 kts | 30° |
| 2026-04-10 14:13 | 38.02535 | -12.40075 | 34068 ft | 379 kts | 31° |
| 2026-04-10 14:13 | 38.07036 | -12.36564 | 34033 ft | 380 kts | 31° |
| 2026-04-10 14:14 | 38.10781 | -12.33638 | 34027 ft | 380 kts | 31° |
| 2026-04-10 14:14 | 38.15287 | -12.30113 | 34025 ft | 381 kts | 31° |
| 2026-04-10 14:15 | 38.19796 | -12.26580 | 34018 ft | 381 kts | 31° |
| 2026-04-10 14:15 | 38.24306 | -12.23042 | 34029 ft | 381 kts | 31° |
| 2026-04-10 14:16 | 38.28817 | -12.19499 | 34015 ft | 381 kts | 31° |
| 2026-04-10 14:16 | 38.33332 | -12.15946 | 34024 ft | 382 kts | 31° |
| 2026-04-10 14:17 | 38.37866 | -12.12373 | 34020 ft | 384 kts | 31° |
| 2026-04-10 14:17 | 38.42414 | -12.08784 | 34023 ft | 385 kts | 31° |
| 2026-04-10 14:18 | 38.46974 | -12.05179 | 34022 ft | 386 kts | 31° |
| 2026-04-10 14:18 | 38.51547 | -12.01561 | 33997 ft | 387 kts | 31° |
| 2026-04-10 14:19 | 38.56081 | -11.97966 | 34010 ft | 387 kts | 31° |
| 2026-04-10 14:19 | 38.60660 | -11.94329 | 34020 ft | 388 kts | 32° |
| 2026-04-10 14:20 | 38.65243 | -11.90685 | 34017 ft | 388 kts | 32° |
| 2026-04-10 14:20 | 38.69829 | -11.87033 | 34016 ft | 388 kts | 32° |
| 2026-04-10 14:21 | 38.74413 | -11.83377 | 34021 ft | 388 kts | 32° |
| 2026-04-10 14:21 | 38.78961 | -11.79743 | 34015 ft | 388 kts | 31° |
| 2026-04-10 14:22 | 38.83548 | -11.76074 | 34022 ft | 389 kts | 31° |
| 2026-04-10 14:22 | 38.88144 | -11.72391 | 34017 ft | 390 kts | 32° |
| 2026-04-10 14:23 | 38.92756 | -11.68689 | 34016 ft | 391 kts | 32° |
| 2026-04-10 14:23 | 38.97378 | -11.64974 | 34017 ft | 392 kts | 32° |
| 2026-04-10 14:24 | 39.02009 | -11.61246 | 34008 ft | 393 kts | 32° |
| 2026-04-10 14:24 | 39.06654 | -11.57500 | 34004 ft | 395 kts | 32° |
| 2026-04-10 14:25 | 39.11312 | -11.53738 | 34012 ft | 396 kts | 32° |
| 2026-04-10 14:25 | 39.15981 | -11.49961 | 34019 ft | 397 kts | 32° |
| 2026-04-10 14:26 | 39.20661 | -11.46169 | 34007 ft | 398 kts | 32° |
| 2026-04-10 14:26 | 39.25344 | -11.42369 | 33983 ft | 398 kts | 32° |
| 2026-04-10 14:27 | 39.30033 | -11.38558 | 34012 ft | 399 kts | 32° |
| 2026-04-10 14:27 | 39.34776 | -11.34829 | 34023 ft | 400 kts | 30° |
| 2026-04-10 14:28 | 39.39624 | -11.31291 | 34041 ft | 401 kts | 30° |
| 2026-04-10 14:28 | 39.44459 | -11.27773 | 34025 ft | 402 kts | 30° |
| 2026-04-10 14:29 | 39.49350 | -11.24178 | 33992 ft | 402 kts | 30° |
| 2026-04-10 14:29 | 39.54166 | -11.20613 | 34013 ft | 402 kts | 30° |
| 2026-04-10 14:30 | 39.59046 | -11.16990 | 34024 ft | 402 kts | 30° |
| 2026-04-10 14:30 | 39.63862 | -11.13408 | 34020 ft | 402 kts | 30° |
| 2026-04-10 14:31 | 39.68713 | -11.09794 | 34025 ft | 402 kts | 30° |
| 2026-04-10 14:31 | 39.73563 | -11.06174 | 33987 ft | 403 kts | 30° |
| 2026-04-10 14:32 | 39.78422 | -11.02543 | 34011 ft | 404 kts | 30° |
| 2026-04-10 14:32 | 39.83250 | -10.98928 | 34023 ft | 405 kts | 30° |
| 2026-04-10 14:33 | 39.88149 | -10.95254 | 34030 ft | 408 kts | 30° |
| 2026-04-10 14:33 | 39.93076 | -10.91554 | 34027 ft | 409 kts | 30° |
| 2026-04-10 14:34 | 39.98009 | -10.87842 | 33997 ft | 409 kts | 30° |
| 2026-04-10 14:34 | 40.02932 | -10.84131 | 34013 ft | 409 kts | 30° |
| 2026-04-10 14:35 | 40.07867 | -10.80404 | 34025 ft | 410 kts | 30° |
| 2026-04-10 14:35 | 40.12799 | -10.76675 | 34027 ft | 410 kts | 30° |
| 2026-04-10 14:36 | 40.17739 | -10.72932 | 34027 ft | 411 kts | 30° |
| 2026-04-10 14:36 | 40.22681 | -10.69182 | 34017 ft | 411 kts | 30° |
| 2026-04-10 14:37 | 40.27625 | -10.65424 | 34024 ft | 411 kts | 30° |
| 2026-04-10 14:37 | 40.32570 | -10.61659 | 34022 ft | 411 kts | 30° |
| 2026-04-10 14:38 | 40.37516 | -10.57886 | 34027 ft | 411 kts | 30° |
| 2026-04-10 14:38 | 40.42452 | -10.54115 | 34027 ft | 411 kts | 31° |
| 2026-04-10 14:39 | 40.47386 | -10.50338 | 34013 ft | 410 kts | 31° |
| 2026-04-10 14:39 | 40.52319 | -10.46556 | 34022 ft | 410 kts | 31° |
| 2026-04-10 14:40 | 40.57252 | -10.42768 | 34025 ft | 411 kts | 31° |
| 2026-04-10 14:40 | 40.62188 | -10.38971 | 34016 ft | 411 kts | 31° |
| 2026-04-10 14:41 | 40.67094 | -10.35190 | 33996 ft | 412 kts | 31° |
| 2026-04-10 14:41 | 40.72074 | -10.31346 | 34016 ft | 413 kts | 30° |
| 2026-04-10 14:42 | 40.77005 | -10.27532 | 34016 ft | 415 kts | 30° |
| 2026-04-10 14:42 | 40.81993 | -10.23668 | 34020 ft | 417 kts | 30° |
| 2026-04-10 14:43 | 40.87000 | -10.19783 | 34035 ft | 418 kts | 31° |
| 2026-04-10 14:43 | 40.92028 | -10.15873 | 34005 ft | 419 kts | 31° |
| 2026-04-10 14:44 | 40.97058 | -10.11955 | 34013 ft | 420 kts | 31° |
| 2026-04-10 14:44 | 41.02096 | -10.08025 | 34015 ft | 421 kts | 31° |
| 2026-04-10 14:45 | 41.07150 | -10.04075 | 34013 ft | 422 kts | 31° |
| 2026-04-10 14:45 | 41.12200 | -10.00120 | 34017 ft | 422 kts | 31° |
| 2026-04-10 14:46 | 41.17200 | -9.96198 | 34002 ft | 422 kts | 30° |
| 2026-04-10 14:46 | 41.22255 | -9.92226 | 34014 ft | 422 kts | 30° |
| 2026-04-10 14:47 | 41.27315 | -9.88242 | 34014 ft | 423 kts | 30° |
| 2026-04-10 14:47 | 41.32380 | -9.84247 | 34014 ft | 424 kts | 30° |
| 2026-04-10 14:48 | 41.37453 | -9.80238 | 33995 ft | 424 kts | 31° |
| 2026-04-10 14:48 | 41.42531 | -9.76218 | 34012 ft | 425 kts | 31° |
| 2026-04-10 14:49 | 41.47619 | -9.72183 | 34009 ft | 426 kts | 31° |
| 2026-04-10 14:49 | 41.52720 | -9.68130 | 34007 ft | 427 kts | 31° |
| 2026-04-10 14:50 | 41.57822 | -9.64068 | 34006 ft | 428 kts | 31° |
| 2026-04-10 14:50 | 41.62940 | -9.59986 | 34004 ft | 429 kts | 30° |
| 2026-04-10 14:51 | 41.68071 | -9.55886 | 34005 ft | 430 kts | 30° |
| 2026-04-10 14:51 | 41.73180 | -9.51796 | 34008 ft | 431 kts | 30° |
| 2026-04-10 14:52 | 41.78333 | -9.47663 | 34006 ft | 432 kts | 30° |
| 2026-04-10 14:52 | 41.83493 | -9.43515 | 33999 ft | 433 kts | 31° |
| 2026-04-10 14:53 | 41.88659 | -9.39356 | 34011 ft | 434 kts | 31° |
| 2026-04-10 14:53 | 41.93721 | -9.34954 | 33993 ft | 435 kts | 39° |
| 2026-04-10 14:54 | 41.98220 | -9.29508 | 33998 ft | 436 kts | 41° |
| 2026-04-10 14:54 | 42.02679 | -9.24004 | 34003 ft | 436 kts | 41° |
| 2026-04-10 14:55 | 42.07161 | -9.18505 | 33992 ft | 436 kts | 41° |
| 2026-04-10 14:55 | 42.11663 | -9.13005 | 34001 ft | 436 kts | 41° |
| 2026-04-10 14:56 | 42.16159 | -9.07513 | 34009 ft | 437 kts | 41° |
| 2026-04-10 14:56 | 42.20661 | -9.02005 | 34007 ft | 437 kts | 41° |
| 2026-04-10 14:57 | 42.25110 | -8.96550 | 34008 ft | 437 kts | 41° |
| 2026-04-10 14:57 | 42.29609 | -8.91022 | 34008 ft | 438 kts | 41° |
| 2026-04-10 14:58 | 42.34111 | -8.85478 | 34021 ft | 439 kts | 41° |
| 2026-04-10 14:58 | 42.38628 | -8.79905 | 34020 ft | 440 kts | 41° |
| 2026-04-10 14:59 | 42.43154 | -8.74308 | 34015 ft | 442 kts | 41° |
| 2026-04-10 14:59 | 42.47662 | -8.68724 | 34019 ft | 442 kts | 41° |
| 2026-04-10 15:00 | 42.52198 | -8.63092 | 34004 ft | 442 kts | 42° |
| 2026-04-10 15:00 | 42.56727 | -8.57458 | 34002 ft | 441 kts | 42° |
| 2026-04-10 15:01 | 42.61238 | -8.51834 | 33997 ft | 440 kts | 42° |
| 2026-04-10 15:01 | 42.65733 | -8.46220 | 33993 ft | 438 kts | 42° |
| 2026-04-10 15:02 | 42.69487 | -8.41523 | 33993 ft | 437 kts | 42° |
| 2026-04-10 15:02 | 42.73924 | -8.35959 | 33985 ft | 437 kts | 41° |
| 2026-04-10 15:03 | 42.78392 | -8.30347 | 33992 ft | 437 kts | 42° |
| 2026-04-10 15:03 | 42.82861 | -8.24720 | 34000 ft | 439 kts | 42° |
| 2026-04-10 15:04 | 42.87346 | -8.19061 | 33994 ft | 440 kts | 42° |
| 2026-04-10 15:04 | 42.91840 | -8.13380 | 33998 ft | 441 kts | 42° |
| 2026-04-10 15:05 | 42.98602 | -8.04810 | 33992 ft | 443 kts | 42° |
| 2026-04-10 15:05 | 43.03062 | -7.99141 | 33991 ft | 444 kts | 41° |
| 2026-04-10 15:06 | 43.07582 | -7.93385 | 33990 ft | 444 kts | 42° |
| 2026-04-10 15:06 | 43.12109 | -7.87608 | 33986 ft | 445 kts | 42° |
| 2026-04-10 15:07 | 43.16629 | -7.81827 | 33976 ft | 445 kts | 41° |
| 2026-04-10 15:07 | 43.21151 | -7.76032 | 33986 ft | 445 kts | 41° |
| 2026-04-10 15:08 | 43.25672 | -7.70223 | 33994 ft | 446 kts | 40° |
| 2026-04-10 15:08 | 43.30201 | -7.64394 | 33992 ft | 447 kts | 40° |
| 2026-04-10 15:09 | 43.34734 | -7.58548 | 33993 ft | 447 kts | 41° |
| 2026-04-10 15:09 | 43.39270 | -7.52682 | 33980 ft | 448 kts | 41° |
| 2026-04-10 15:10 | 43.43781 | -7.46842 | 33972 ft | 448 kts | 41° |
| 2026-04-10 15:10 | 43.48353 | -7.40908 | 33979 ft | 449 kts | 41° |
| 2026-04-10 15:11 | 43.52860 | -7.35041 | 33976 ft | 449 kts | 41° |
| 2026-04-10 15:11 | 43.57405 | -7.29114 | 33973 ft | 449 kts | 42° |
| 2026-04-10 15:12 | 43.61946 | -7.23176 | 33975 ft | 450 kts | 41° |
| 2026-04-10 15:12 | 43.66496 | -7.17221 | 33981 ft | 452 kts | 42° |
| 2026-04-10 15:13 | 43.71058 | -7.11236 | 33983 ft | 453 kts | 42° |
| 2026-04-10 15:13 | 43.75628 | -7.05225 | 33983 ft | 454 kts | 42° |
| 2026-04-10 15:14 | 43.80155 | -6.99256 | 33975 ft | 455 kts | 42° |
| 2026-04-10 15:14 | 43.84744 | -6.93193 | 33973 ft | 456 kts | 42° |
| 2026-04-10 15:15 | 43.89338 | -6.87110 | 33974 ft | 457 kts | 42° |
| 2026-04-10 15:15 | 43.93931 | -6.81014 | 33978 ft | 457 kts | 42° |
| 2026-04-10 15:16 | 43.98526 | -6.74902 | 33964 ft | 457 kts | 42° |
| 2026-04-10 15:16 | 44.03114 | -6.68785 | 33977 ft | 457 kts | 42° |
| 2026-04-10 15:17 | 44.07699 | -6.62659 | 33965 ft | 457 kts | 42° |
| 2026-04-10 15:17 | 44.12280 | -6.56523 | 33968 ft | 457 kts | 42° |
| 2026-04-10 15:18 | 44.16858 | -6.50379 | 33967 ft | 457 kts | 42° |
| 2026-04-10 15:18 | 44.21409 | -6.44256 | 33977 ft | 457 kts | 42° |
| 2026-04-10 15:19 | 44.25987 | -6.38082 | 33970 ft | 458 kts | 42° |
| 2026-04-10 15:19 | 44.30567 | -6.31893 | 33972 ft | 458 kts | 42° |
| 2026-04-10 15:20 | 44.35147 | -6.25689 | 33969 ft | 459 kts | 42° |
| 2026-04-10 15:20 | 44.39730 | -6.19467 | 33971 ft | 459 kts | 42° |
| 2026-04-10 15:21 | 44.44316 | -6.13225 | 33969 ft | 460 kts | 42° |
| 2026-04-10 15:21 | 44.48903 | -6.06968 | 33974 ft | 461 kts | 42° |
| 2026-04-10 15:22 | 44.53495 | -6.00690 | 33976 ft | 461 kts | 42° |
| 2026-04-10 15:22 | 44.58035 | -5.94468 | 33972 ft | 462 kts | 43° |
| 2026-04-10 15:23 | 44.62632 | -5.88154 | 33973 ft | 462 kts | 43° |
| 2026-04-10 15:23 | 44.67223 | -5.81839 | 33972 ft | 462 kts | 42° |
| 2026-04-10 15:24 | 44.71830 | -5.75537 | 33975 ft | 462 kts | 42° |
| 2026-04-10 15:24 | 44.76435 | -5.69237 | 33982 ft | 462 kts | 43° |
| 2026-04-10 15:25 | 44.81034 | -5.62927 | 33972 ft | 461 kts | 43° |
| 2026-04-10 15:25 | 44.85619 | -5.56616 | 33978 ft | 460 kts | 43° |
| 2026-04-10 15:26 | 44.90198 | -5.50295 | 33981 ft | 460 kts | 42° |
| 2026-04-10 15:26 | 44.94744 | -5.44007 | 33980 ft | 461 kts | 42° |
| 2026-04-10 15:27 | 44.99323 | -5.37658 | 33979 ft | 462 kts | 42° |
| 2026-04-10 15:27 | 45.03905 | -5.31289 | 33988 ft | 462 kts | 43° |
| 2026-04-10 15:28 | 45.08494 | -5.24895 | 33987 ft | 463 kts | 42° |
| 2026-04-10 15:28 | 45.13082 | -5.18489 | 33989 ft | 464 kts | 42° |
| 2026-04-10 15:29 | 45.17675 | -5.12059 | 33987 ft | 464 kts | 42° |
| 2026-04-10 15:29 | 45.22268 | -5.05613 | 33990 ft | 465 kts | 43° |
| 2026-04-10 15:30 | 45.26801 | -4.99237 | 33991 ft | 465 kts | 43° |
| 2026-04-10 15:30 | 45.31395 | -4.92760 | 33998 ft | 465 kts | 42° |
| 2026-04-10 15:31 | 45.35987 | -4.86269 | 33992 ft | 466 kts | 42° |
| 2026-04-10 15:31 | 45.40581 | -4.79761 | 33991 ft | 466 kts | 42° |
| 2026-04-10 15:32 | 45.45174 | -4.73237 | 33990 ft | 466 kts | 43° |
| 2026-04-10 15:32 | 45.49765 | -4.66700 | 34003 ft | 467 kts | 42° |
| 2026-04-10 15:33 | 45.54353 | -4.60152 | 33995 ft | 467 kts | 42° |
| 2026-04-10 15:33 | 45.58915 | -4.53625 | 33992 ft | 467 kts | 42° |
| 2026-04-10 15:34 | 45.63502 | -4.47046 | 33997 ft | 467 kts | 43° |
| 2026-04-10 15:34 | 45.68083 | -4.40459 | 33997 ft | 467 kts | 43° |
| 2026-04-10 15:35 | 45.72666 | -4.33855 | 34002 ft | 468 kts | 42° |
| 2026-04-10 15:35 | 45.77248 | -4.27234 | 33998 ft | 468 kts | 42° |
| 2026-04-10 15:36 | 45.81835 | -4.20590 | 34003 ft | 469 kts | 42° |
| 2026-04-10 15:36 | 45.86422 | -4.13928 | 34003 ft | 469 kts | 43° |
| 2026-04-10 15:37 | 45.91007 | -4.07254 | 34017 ft | 470 kts | 42° |
| 2026-04-10 15:37 | 45.95605 | -4.00545 | 34009 ft | 471 kts | 42° |
| 2026-04-10 15:38 | 46.00141 | -3.93909 | 34006 ft | 472 kts | 42° |
| 2026-04-10 15:38 | 46.04746 | -3.87153 | 34003 ft | 473 kts | 43° |
| 2026-04-10 15:39 | 46.09352 | -3.80381 | 34002 ft | 473 kts | 43° |
| 2026-04-10 15:39 | 46.13959 | -3.73588 | 34007 ft | 474 kts | 42° |
| 2026-04-10 15:40 | 46.18560 | -3.66788 | 34003 ft | 474 kts | 42° |
| 2026-04-10 15:40 | 46.23132 | -3.60015 | 34008 ft | 474 kts | 43° |
| 2026-04-10 15:41 | 46.27727 | -3.53188 | 34015 ft | 474 kts | 43° |
| 2026-04-10 15:41 | 46.32316 | -3.46352 | 34018 ft | 473 kts | 42° |
| 2026-04-10 15:42 | 46.36898 | -3.39511 | 34012 ft | 473 kts | 42° |
| 2026-04-10 15:42 | 46.41480 | -3.32652 | 34017 ft | 473 kts | 43° |
| 2026-04-10 15:43 | 46.46052 | -3.25790 | 34017 ft | 473 kts | 43° |
| 2026-04-10 15:43 | 46.50621 | -3.18912 | 34021 ft | 473 kts | 43° |
| 2026-04-10 15:44 | 46.55187 | -3.12025 | 34025 ft | 474 kts | 43° |
| 2026-04-10 15:44 | 46.59134 | -3.04307 | 34028 ft | 480 kts | 57° |
| 2026-04-10 15:45 | 46.62404 | -2.95972 | 34017 ft | 481 kts | 58° |
| 2026-04-10 15:45 | 46.65713 | -2.87516 | 34022 ft | 481 kts | 57° |
| 2026-04-10 15:46 | 46.69062 | -2.79083 | 34026 ft | 481 kts | 57° |
| 2026-04-10 15:46 | 46.72425 | -2.70650 | 34022 ft | 481 kts | 57° |
| 2026-04-10 15:47 | 46.75773 | -2.62229 | 34024 ft | 480 kts | 57° |
| 2026-04-10 15:47 | 46.79113 | -2.53792 | 34024 ft | 480 kts | 57° |
| 2026-04-10 15:48 | 46.82445 | -2.45348 | 34024 ft | 480 kts | 57° |
| 2026-04-10 15:48 | 46.85208 | -2.38327 | 34026 ft | 479 kts | 57° |
| 2026-04-10 15:49 | 46.88606 | -2.29956 | 34021 ft | 478 kts | 55° |
| 2026-04-10 15:49 | 46.92709 | -2.20378 | 34022 ft | 478 kts | 55° |
| 2026-04-10 15:50 | 46.95642 | -2.13456 | 34039 ft | 478 kts | 55° |
| 2026-04-10 15:50 | 46.99119 | -2.05163 | 34032 ft | 478 kts | 56° |
| 2026-04-10 15:51 | 47.02475 | -1.96974 | 34031 ft | 479 kts | 57° |
| 2026-04-10 15:51 | 47.05731 | -1.88449 | 34028 ft | 479 kts | 58° |
| 2026-04-10 15:52 | 47.08976 | -1.79904 | 34024 ft | 479 kts | 58° |
| 2026-04-10 15:52 | 47.12238 | -1.71375 | 34024 ft | 479 kts | 58° |
| 2026-04-10 15:53 | 47.15503 | -1.62834 | 34021 ft | 479 kts | 58° |
| 2026-04-10 15:53 | 47.18986 | -1.54508 | 34024 ft | 478 kts | 53° |
| 2026-04-10 15:54 | 47.22697 | -1.46386 | 34026 ft | 479 kts | 53° |
| 2026-04-10 15:54 | 47.26414 | -1.38242 | 34025 ft | 480 kts | 53° |
| 2026-04-10 15:55 | 47.30098 | -1.30041 | 34034 ft | 481 kts | 53° |
| 2026-04-10 15:55 | 47.33772 | -1.21784 | 34033 ft | 482 kts | 53° |
| 2026-04-10 15:56 | 47.37444 | -1.13493 | 34043 ft | 483 kts | 53° |
| 2026-04-10 15:56 | 47.41117 | -1.05183 | 34050 ft | 484 kts | 54° |
| 2026-04-10 15:57 | 47.44745 | -0.96950 | 34051 ft | 485 kts | 54° |
| 2026-04-10 15:57 | 47.48423 | -0.88579 | 34048 ft | 486 kts | 54° |
| 2026-04-10 15:58 | 47.52093 | -0.80200 | 34059 ft | 486 kts | 54° |
| 2026-04-10 15:58 | 47.55762 | -0.71798 | 34053 ft | 486 kts | 54° |
| 2026-04-10 15:59 | 47.59425 | -0.63386 | 34073 ft | 486 kts | 54° |
| 2026-04-10 15:59 | 47.63078 | -0.54971 | 34059 ft | 485 kts | 54° |
| 2026-04-10 16:00 | 47.66720 | -0.46554 | 34050 ft | 485 kts | 54° |
| 2026-04-10 16:00 | 47.70356 | -0.38125 | 34053 ft | 484 kts | 54° |
| 2026-04-10 16:01 | 47.73981 | -0.29697 | 34053 ft | 484 kts | 54° |
| 2026-04-10 16:01 | 47.77597 | -0.21261 | 34058 ft | 483 kts | 54° |
| 2026-04-10 16:02 | 47.81202 | -0.12824 | 34081 ft | 484 kts | 54° |
| 2026-04-10 16:02 | 47.84784 | -0.04417 | 34079 ft | 484 kts | 54° |
| 2026-04-10 16:03 | 47.88340 | 0.03953 | 34055 ft | 484 kts | 54° |
| 2026-04-10 16:03 | 47.91933 | 0.12441 | 34048 ft | 485 kts | 54° |
| 2026-04-10 16:04 | 47.95528 | 0.20957 | 34051 ft | 485 kts | 54° |
| 2026-04-10 16:04 | 47.99112 | 0.29474 | 34045 ft | 485 kts | 54° |
| 2026-04-10 16:05 | 48.02691 | 0.38007 | 34064 ft | 486 kts | 54° |
| 2026-04-10 16:05 | 48.06274 | 0.46577 | 34075 ft | 486 kts | 54° |
| 2026-04-10 16:06 | 48.09855 | 0.55168 | 34075 ft | 487 kts | 54° |
| 2026-04-10 16:06 | 48.13252 | 0.63946 | 34081 ft | 490 kts | 60° |
| 2026-04-10 16:07 | 48.16048 | 0.73291 | 34088 ft | 492 kts | 63° |
| 2026-04-10 16:07 | 48.18739 | 0.82709 | 34080 ft | 492 kts | 63° |
| 2026-04-10 16:08 | 48.21466 | 0.92104 | 34089 ft | 491 kts | 63° |
| 2026-04-10 16:08 | 48.24190 | 1.01368 | 34091 ft | 491 kts | 62° |
| 2026-04-10 16:09 | 48.26951 | 1.10737 | 34090 ft | 491 kts | 62° |
| 2026-04-10 16:09 | 48.29712 | 1.20142 | 34091 ft | 492 kts | 62° |
| 2026-04-10 16:10 | 48.32463 | 1.29561 | 34093 ft | 492 kts | 62° |
| 2026-04-10 16:10 | 48.35202 | 1.38981 | 34090 ft | 492 kts | 62° |
| 2026-04-10 16:11 | 48.37935 | 1.48417 | 34089 ft | 492 kts | 62° |
| 2026-04-10 16:11 | 48.40659 | 1.57859 | 34095 ft | 491 kts | 62° |
| 2026-04-10 16:12 | 48.43373 | 1.67300 | 34108 ft | 491 kts | 62° |
| 2026-04-10 16:13 | 48.47432 | 1.81487 | 34105 ft | 492 kts | 62° |
| 2026-04-10 16:13 | 48.50129 | 1.90967 | 34098 ft | 492 kts | 62° |
| 2026-04-10 16:14 | 48.52781 | 2.00323 | 34087 ft | 492 kts | 62° |
| 2026-04-10 16:14 | 48.55446 | 2.09759 | 34084 ft | 492 kts | 62° |
| 2026-04-10 16:15 | 48.58119 | 2.19263 | 34097 ft | 492 kts | 62° |
| 2026-04-10 16:15 | 48.60801 | 2.28835 | 34103 ft | 492 kts | 62° |
| 2026-04-10 16:16 | 48.63440 | 2.38293 | 34112 ft | 491 kts | 62° |
| 2026-04-10 16:16 | 48.66089 | 2.47826 | 34105 ft | 492 kts | 62° |
| 2026-04-10 16:17 | 48.68730 | 2.57368 | 34104 ft | 492 kts | 62° |
| 2026-04-10 16:17 | 48.71363 | 2.66921 | 34113 ft | 492 kts | 62° |
| 2026-04-10 16:18 | 48.73988 | 2.76480 | 34102 ft | 492 kts | 62° |
| 2026-04-10 16:18 | 48.76603 | 2.86042 | 34108 ft | 492 kts | 62° |
| 2026-04-10 16:19 | 48.79214 | 2.95629 | 34107 ft | 491 kts | 62° |
| 2026-04-10 16:19 | 48.81782 | 3.05098 | 34106 ft | 491 kts | 63° |
| 2026-04-10 16:20 | 48.84375 | 3.14696 | 34115 ft | 491 kts | 62° |
| 2026-04-10 16:20 | 48.86959 | 3.24302 | 34110 ft | 492 kts | 62° |
| 2026-04-10 16:21 | 48.89537 | 3.33924 | 34109 ft | 491 kts | 62° |
| 2026-04-10 16:21 | 48.92104 | 3.43545 | 34105 ft | 491 kts | 62° |
| 2026-04-10 16:22 | 48.94664 | 3.53182 | 34121 ft | 491 kts | 62° |
| 2026-04-10 16:22 | 48.97213 | 3.62812 | 34113 ft | 491 kts | 62° |
| 2026-04-10 16:23 | 48.99751 | 3.72447 | 34104 ft | 490 kts | 62° |
| 2026-04-10 16:23 | 49.02277 | 3.82076 | 34133 ft | 490 kts | 62° |
| 2026-04-10 16:24 | 49.04795 | 3.91711 | 34125 ft | 489 kts | 62° |
| 2026-04-10 16:24 | 49.07277 | 4.01247 | 34115 ft | 489 kts | 62° |
| 2026-04-10 16:25 | 49.09775 | 4.10890 | 34130 ft | 489 kts | 62° |
| 2026-04-10 16:25 | 49.12268 | 4.20550 | 34135 ft | 490 kts | 62° |
| 2026-04-10 16:26 | 49.14760 | 4.30247 | 34122 ft | 491 kts | 62° |
| 2026-04-10 16:26 | 49.17227 | 4.39891 | 34127 ft | 491 kts | 62° |
| 2026-04-10 16:27 | 49.19701 | 4.49605 | 34124 ft | 491 kts | 62° |
| 2026-04-10 16:27 | 49.22167 | 4.59326 | 34131 ft | 490 kts | 62° |
| 2026-04-10 16:28 | 49.24622 | 4.69049 | 34122 ft | 490 kts | 62° |
| 2026-04-10 16:28 | 49.27067 | 4.78771 | 34116 ft | 489 kts | 62° |
| 2026-04-10 16:29 | 49.29503 | 4.88499 | 34109 ft | 489 kts | 62° |
| 2026-04-10 16:29 | 49.31928 | 4.98228 | 34112 ft | 488 kts | 62° |
| 2026-04-10 16:30 | 49.34312 | 5.07830 | 34110 ft | 488 kts | 62° |
| 2026-04-10 16:30 | 49.36718 | 5.17566 | 34107 ft | 487 kts | 62° |
| 2026-04-10 16:31 | 49.39109 | 5.27287 | 34116 ft | 487 kts | 62° |
| 2026-04-10 16:31 | 49.41496 | 5.37026 | 34130 ft | 488 kts | 62° |
| 2026-04-10 16:32 | 49.43876 | 5.46785 | 34118 ft | 488 kts | 62° |
| 2026-04-10 16:32 | 49.46250 | 5.56560 | 34105 ft | 488 kts | 62° |
| 2026-04-10 16:33 | 49.48616 | 5.66352 | 34110 ft | 488 kts | 62° |
| 2026-04-10 16:33 | 49.50973 | 5.76140 | 34108 ft | 487 kts | 62° |
| 2026-04-10 16:34 | 49.53325 | 5.85925 | 34122 ft | 487 kts | 62° |
| 2026-04-10 16:34 | 49.55731 | 5.95676 | 34108 ft | 487 kts | 62° |
| 2026-04-10 16:35 | 49.57704 | 6.03616 | 34104 ft | 486 kts | 62° |
| 2026-04-10 16:35 | 49.60106 | 6.13363 | 34111 ft | 487 kts | 62° |
| 2026-04-10 16:36 | 49.62885 | 6.24724 | 34104 ft | 487 kts | 62° |
| 2026-04-10 16:36 | 49.64741 | 6.33037 | 34127 ft | 492 kts | 66° |
| 2026-04-10 16:37 | 49.66546 | 6.43253 | 34106 ft | 494 kts | 68° |
| 2026-04-10 16:37 | 49.68268 | 6.53526 | 34104 ft | 494 kts | 68° |
| 2026-04-10 16:38 | 49.70029 | 6.63782 | 34108 ft | 494 kts | 68° |
| 2026-04-10 16:38 | 49.71800 | 6.73947 | 34112 ft | 493 kts | 68° |
| 2026-04-10 16:39 | 49.73599 | 6.84262 | 34120 ft | 494 kts | 67° |
| 2026-04-10 16:39 | 49.75362 | 6.94442 | 34116 ft | 493 kts | 68° |
| 2026-04-10 16:40 | 49.77097 | 7.04540 | 34118 ft | 493 kts | 68° |
| 2026-04-10 16:40 | 49.78848 | 7.14793 | 34128 ft | 492 kts | 68° |
| 2026-04-10 16:41 | 49.80589 | 7.25040 | 34111 ft | 492 kts | 68° |
| 2026-04-10 16:41 | 49.82318 | 7.35283 | 34122 ft | 491 kts | 68° |
| 2026-04-10 16:42 | 49.84048 | 7.45590 | 34116 ft | 491 kts | 68° |
| 2026-04-10 16:42 | 49.85743 | 7.55755 | 34123 ft | 490 kts | 68° |
| 2026-04-10 16:43 | 49.87440 | 7.65984 | 34122 ft | 489 kts | 68° |
| 2026-04-10 16:43 | 49.89125 | 7.76204 | 34147 ft | 490 kts | 68° |
| 2026-04-10 16:44 | 49.90802 | 7.86437 | 34128 ft | 489 kts | 68° |
| 2026-04-10 16:44 | 49.92468 | 7.96671 | 34155 ft | 489 kts | 68° |
| 2026-04-10 16:45 | 49.94104 | 8.06773 | 34142 ft | 489 kts | 68° |
| 2026-04-10 16:45 | 49.95756 | 8.17042 | 34135 ft | 490 kts | 68° |
| 2026-04-10 16:46 | 49.97399 | 8.27313 | 34149 ft | 491 kts | 68° |
| 2026-04-10 16:46 | 49.99033 | 8.37599 | 34141 ft | 491 kts | 68° |
| 2026-04-10 16:47 | 50.00658 | 8.47892 | 34126 ft | 491 kts | 68° |
| 2026-04-10 16:47 | 50.02273 | 8.58188 | 34128 ft | 490 kts | 68° |
| 2026-04-10 16:48 | 50.03610 | 8.66750 | 34128 ft | 490 kts | 68° |
| 2026-04-10 16:48 | 50.05535 | 8.79984 | 34118 ft | 497 kts | 75° |
| 2026-04-10 16:49 | 50.05672 | 8.89082 | 34138 ft | 505 kts | 86° |
| 2026-04-10 16:49 | 50.05323 | 9.01658 | 34120 ft | 506 kts | 86° |
| 2026-04-10 16:50 | 50.05025 | 9.12596 | 34122 ft | 506 kts | 86° |
| 2026-04-10 16:50 | 50.04769 | 9.23521 | 34102 ft | 506 kts | 86° |
| 2026-04-10 16:51 | 50.04565 | 9.32694 | 34120 ft | 506 kts | 86° |
| 2026-04-10 16:51 | 50.04316 | 9.43570 | 34116 ft | 507 kts | 86° |
| 2026-04-10 16:52 | 50.04052 | 9.54529 | 34114 ft | 507 kts | 86° |
| 2026-04-10 16:52 | 50.03775 | 9.65508 | 34131 ft | 508 kts | 86° |
| 2026-04-10 16:53 | 50.03487 | 9.76536 | 34205 ft | 514 kts | 86° |
| 2026-04-10 16:53 | 50.03338 | 9.82097 | 34455 ft | 514 kts | 86° |
| 2026-04-10 16:53 | 50.03185 | 9.87638 | 34780 ft | 512 kts | 86° |
| 2026-04-10 16:53 | 50.03029 | 9.93150 | 35096 ft | 509 kts | 86° |
| 2026-04-10 16:54 | 50.02873 | 9.98674 | 35086 ft | 513 kts | 87° |
| 2026-04-10 16:54 | 50.02555 | 10.09621 | 35116 ft | 512 kts | 87° |
| 2026-04-10 16:55 | 50.02221 | 10.20606 | 35094 ft | 507 kts | 87° |
| 2026-04-10 16:55 | 50.01883 | 10.31542 | 35106 ft | 506 kts | 87° |
| 2026-04-10 16:56 | 50.01536 | 10.42466 | 35099 ft | 506 kts | 87° |
| 2026-04-10 16:56 | 50.01178 | 10.53380 | 35127 ft | 506 kts | 87° |
| 2026-04-10 16:57 | 50.00809 | 10.64306 | 35109 ft | 507 kts | 87° |
| 2026-04-10 16:57 | 50.00429 | 10.75265 | 35109 ft | 508 kts | 87° |
| 2026-04-10 16:58 | 50.00037 | 10.86228 | 35103 ft | 509 kts | 87° |
| 2026-04-10 16:58 | 49.99637 | 10.97145 | 35105 ft | 510 kts | 87° |
| 2026-04-10 16:59 | 49.99229 | 11.08023 | 35120 ft | 511 kts | 87° |
| 2026-04-10 16:59 | 49.99018 | 11.13569 | 34754 ft | 518 kts | 87° |
| 2026-04-10 16:59 | 49.98802 | 11.19167 | 34180 ft | 518 kts | 87° |
| 2026-04-10 16:59 | 49.98583 | 11.24752 | 33499 ft | 518 kts | 87° |
| 2026-04-10 17:00 | 49.98359 | 11.30343 | 32867 ft | 518 kts | 88° |
| 2026-04-10 17:00 | 49.98133 | 11.35888 | 32448 ft | 512 kts | 88° |
| 2026-04-10 17:00 | 49.97906 | 11.41401 | 31971 ft | 509 kts | 88° |
| 2026-04-10 17:00 | 49.97679 | 11.46856 | 31549 ft | 505 kts | 87° |
| 2026-04-10 17:01 | 49.97452 | 11.52288 | 31080 ft | 502 kts | 87° |
| 2026-04-10 17:01 | 49.97226 | 11.57684 | 30639 ft | 499 kts | 87° |
| 2026-04-10 17:01 | 49.96998 | 11.63047 | 30168 ft | 497 kts | 87° |
| 2026-04-10 17:01 | 49.96769 | 11.68382 | 29664 ft | 494 kts | 87° |
| 2026-04-10 17:02 | 49.96538 | 11.73696 | 29165 ft | 490 kts | 87° |
| 2026-04-10 17:02 | 49.96306 | 11.78953 | 28699 ft | 486 kts | 87° |
| 2026-04-10 17:02 | 49.96074 | 11.84167 | 28248 ft | 481 kts | 87° |
| 2026-04-10 17:02 | 49.95842 | 11.89333 | 27787 ft | 477 kts | 87° |
| 2026-04-10 17:03 | 49.95610 | 11.94455 | 27361 ft | 473 kts | 87° |
| 2026-04-10 17:03 | 49.95378 | 11.99528 | 26905 ft | 470 kts | 87° |
| 2026-04-10 17:03 | 49.95151 | 12.04445 | 26473 ft | 466 kts | 88° |
| 2026-04-10 17:03 | 49.94919 | 12.09430 | 26036 ft | 462 kts | 88° |
| 2026-04-10 17:04 | 49.94687 | 12.14393 | 25595 ft | 459 kts | 88° |
| 2026-04-10 17:04 | 49.94454 | 12.19308 | 25153 ft | 455 kts | 88° |
| 2026-04-10 17:04 | 49.94221 | 12.24188 | 24728 ft | 451 kts | 88° |
| 2026-04-10 17:04 | 49.93989 | 12.29034 | 24307 ft | 448 kts | 88° |
| 2026-04-10 17:05 | 49.93755 | 12.33822 | 23868 ft | 442 kts | 88° |
| 2026-04-10 17:05 | 49.93560 | 12.38530 | 23580 ft | 430 kts | 86° |
| 2026-04-10 17:05 | 49.93421 | 12.43101 | 23294 ft | 419 kts | 85° |
| 2026-04-10 17:05 | 49.93305 | 12.47571 | 22916 ft | 410 kts | 85° |
| 2026-04-10 17:06 | 49.93196 | 12.51951 | 22514 ft | 403 kts | 85° |
| 2026-04-10 17:06 | 49.93084 | 12.56267 | 22110 ft | 398 kts | 86° |
| 2026-04-10 17:06 | 49.92969 | 12.60537 | 21718 ft | 396 kts | 86° |
| 2026-04-10 17:06 | 49.92850 | 12.64815 | 21327 ft | 400 kts | 87° |
| 2026-04-10 17:07 | 49.92727 | 12.69173 | 21081 ft | 407 kts | 87° |
| 2026-04-10 17:07 | 49.92596 | 12.73593 | 20833 ft | 412 kts | 88° |
| 2026-04-10 17:07 | 49.92460 | 12.78026 | 20574 ft | 409 kts | 88° |
| 2026-04-10 17:07 | 49.92320 | 12.82409 | 20339 ft | 405 kts | 88° |
| 2026-04-10 17:08 | 49.92180 | 12.86766 | 20082 ft | 402 kts | 88° |
| 2026-04-10 17:08 | 49.92041 | 12.91077 | 19835 ft | 399 kts | 88° |
| 2026-04-10 17:08 | 49.91902 | 12.95365 | 19585 ft | 397 kts | 88° |
| 2026-04-10 17:08 | 49.91762 | 12.99624 | 19366 ft | 395 kts | 89° |
| 2026-04-10 17:09 | 49.91626 | 13.03760 | 19135 ft | 393 kts | 89° |
| 2026-04-10 17:09 | 49.91486 | 13.07989 | 18897 ft | 392 kts | 89° |
| 2026-04-10 17:09 | 49.91344 | 13.12204 | 18659 ft | 391 kts | 89° |
| 2026-04-10 17:09 | 49.91201 | 13.16402 | 18432 ft | 389 kts | 89° |
| 2026-04-10 17:10 | 49.91057 | 13.20576 | 18090 ft | 385 kts | 89° |
| 2026-04-10 17:10 | 49.90913 | 13.24699 | 17737 ft | 380 kts | 89° |
| 2026-04-10 17:10 | 49.90830 | 13.28781 | 17343 ft | 377 kts | 87° |
| 2026-04-10 17:10 | 49.90796 | 13.32822 | 16953 ft | 374 kts | 86° |
| 2026-04-10 17:11 | 49.90776 | 13.36843 | 16560 ft | 371 kts | 86° |
| 2026-04-10 17:11 | 49.90756 | 13.40829 | 16191 ft | 368 kts | 86° |
| 2026-04-10 17:11 | 49.90729 | 13.44793 | 15824 ft | 366 kts | 87° |
| 2026-04-10 17:11 | 49.90698 | 13.48720 | 15466 ft | 363 kts | 87° |
| 2026-04-10 17:12 | 49.90663 | 13.52624 | 15113 ft | 361 kts | 87° |
| 2026-04-10 17:12 | 49.90625 | 13.56498 | 14760 ft | 358 kts | 87° |
| 2026-04-10 17:12 | 49.90584 | 13.60347 | 14407 ft | 356 kts | 87° |
| 2026-04-10 17:12 | 49.90542 | 13.64169 | 14067 ft | 353 kts | 87° |
| 2026-04-10 17:13 | 49.90498 | 13.67963 | 13708 ft | 351 kts | 87° |
| 2026-04-10 17:13 | 49.90454 | 13.71683 | 13356 ft | 347 kts | 87° |
| 2026-04-10 17:13 | 49.90407 | 13.75405 | 13014 ft | 344 kts | 87° |
| 2026-04-10 17:13 | 49.90362 | 13.79100 | 12626 ft | 342 kts | 87° |
| 2026-04-10 17:14 | 49.90316 | 13.82771 | 12284 ft | 339 kts | 87° |
| 2026-04-10 17:14 | 49.90268 | 13.86403 | 11946 ft | 335 kts | 88° |
| 2026-04-10 17:14 | 49.90220 | 13.90006 | 11600 ft | 333 kts | 88° |
| 2026-04-10 17:14 | 49.90170 | 13.93578 | 11269 ft | 330 kts | 88° |
| 2026-04-10 17:15 | 49.90123 | 13.97121 | 10927 ft | 327 kts | 88° |
| 2026-04-10 17:15 | 49.90074 | 14.00530 | 10614 ft | 324 kts | 88° |
| 2026-04-10 17:15 | 49.90022 | 14.04012 | 10300 ft | 322 kts | 88° |
| 2026-04-10 17:15 | 49.89970 | 14.07466 | 9964 ft | 319 kts | 88° |
| 2026-04-10 17:16 | 49.89918 | 14.10894 | 9601 ft | 317 kts | 88° |
| 2026-04-10 17:16 | 49.89861 | 14.14297 | 9226 ft | 316 kts | 89° |
| 2026-04-10 17:16 | 49.89805 | 14.17691 | 8827 ft | 314 kts | 88° |
| 2026-04-10 17:16 | 49.89753 | 14.21078 | 8477 ft | 312 kts | 88° |
| 2026-04-10 17:17 | 49.89701 | 14.24440 | 8122 ft | 310 kts | 88° |
| 2026-04-10 17:17 | 49.89645 | 14.27693 | 7991 ft | 293 kts | 88° |
| 2026-04-10 17:17 | 49.89592 | 14.30787 | 7785 ft | 280 kts | 88° |
| 2026-04-10 17:17 | 49.89540 | 14.33722 | 7650 ft | 266 kts | 88° |
| 2026-04-10 17:18 | 49.89491 | 14.36561 | 7303 ft | 262 kts | 88° |
| 2026-04-10 17:18 | 49.89443 | 14.39385 | 6906 ft | 261 kts | 88° |
| 2026-04-10 17:18 | 49.89395 | 14.42188 | 6525 ft | 259 kts | 88° |
| 2026-04-10 17:18 | 49.89345 | 14.44975 | 6134 ft | 258 kts | 88° |
| 2026-04-10 17:19 | 49.89408 | 14.47721 | 5801 ft | 249 kts | 71° |
| 2026-04-10 17:19 | 49.90168 | 14.49973 | 5525 ft | 230 kts | 40° |
| 2026-04-10 17:19 | 49.91491 | 14.51168 | 5126 ft | 217 kts | 7° |
| 2026-04-10 17:19 | 49.92954 | 14.50957 | 5069 ft | 215 kts | 339° |
| 2026-04-10 17:20 | 49.94348 | 14.50085 | 5021 ft | 216 kts | 335° |
| 2026-04-10 17:20 | 49.95700 | 14.49168 | 4961 ft | 208 kts | 335° |
| 2026-04-10 17:20 | 49.96981 | 14.48294 | 4872 ft | 194 kts | 334° |
| 2026-04-10 17:21 | 49.99270 | 14.46765 | 4505 ft | 170 kts | 335° |
| 2026-04-10 17:21 | 50.00288 | 14.45904 | 4227 ft | 164 kts | 316° |
| 2026-04-10 17:21 | 50.01038 | 14.44576 | 4019 ft | 165 kts | 311° |
| 2026-04-10 17:21 | 50.01783 | 14.43189 | 3789 ft | 169 kts | 309° |
| 2026-04-10 17:22 | 50.02489 | 14.41766 | 3552 ft | 166 kts | 308° |
| 2026-04-10 17:22 | 50.03161 | 14.40379 | 3331 ft | 156 kts | 307° |
| 2026-04-10 17:22 | 50.03802 | 14.39053 | 3162 ft | 147 kts | 307° |
| 2026-04-10 17:22 | 50.04395 | 14.37818 | 2909 ft | 139 kts | 306° |
| 2026-04-10 17:23 | 50.04981 | 14.36601 | 2729 ft | 142 kts | 306° |
| 2026-04-10 17:23 | 50.05573 | 14.35371 | 2521 ft | 142 kts | 306° |
| 2026-04-10 17:23 | 50.06167 | 14.34138 | 2333 ft | 143 kts | 306° |
| 2026-04-10 17:23 | 50.06772 | 14.32883 | 2107 ft | 146 kts | 306° |
| 2026-04-10 17:24 | 50.07383 | 14.31618 | 1891 ft | 146 kts | 305° |
| 2026-04-10 17:24 | 50.07991 | 14.30348 | 1666 ft | 147 kts | 306° |
| 2026-04-10 17:24 | 50.08598 | 14.29079 | 1427 ft | 145 kts | 307° |
| 2026-04-10 17:24 | 50.09195 | 14.27853 | 1241 ft | 139 kts | 308° |
| 2026-04-10 17:25 | 50.09720 | 14.26772 | 1207 ft | 106 kts | 307° |
| 2026-04-10 17:25 | 50.10074 | 14.26041 | 1190 ft | 63 kts | 307° |
| 2026-04-10 17:25 | 50.10267 | 14.25712 | 1184 ft | 22 kts | 333° |
| 2026-04-10 17:25 | 50.10401 | 14.25658 | 1182 ft | 10 kts | 1° |
| 2026-04-10 17:26 | 50.10410 | 14.25659 | 1182 ft | 0 kts | 3° |
| 2026-04-10 17:26 | 50.10425 | 14.25661 | 1182 ft | 4 kts | 6° |
| 2026-04-10 17:26 | 50.10472 | 14.25688 | 1178 ft | 10 kts | 52° |
| 2026-04-10 17:27 | 50.10495 | 14.25821 | 1174 ft | 14 kts | 79° |
| 2026-04-10 17:27 | 50.10515 | 14.25975 | 1174 ft | 14 kts | 78° |
| 2026-04-10 17:27 | 50.10533 | 14.26121 | 1170 ft | 13 kts | 78° |
| 2026-04-10 17:27 | 50.10526 | 14.26258 | 1170 ft | 13 kts | 114° |
| 2026-04-10 17:28 | 50.10478 | 14.26373 | 1170 ft | 12 kts | 124° |
| 2026-04-10 17:28 | 50.10430 | 14.26483 | 1169 ft | 12 kts | 124° |
| 2026-04-10 17:28 | 50.10383 | 14.26590 | 1171 ft | 11 kts | 124° |
| 2026-04-10 17:28 | 50.10355 | 14.26653 | 1172 ft | 6 kts | 124° |
| 2026-04-10 17:29 | 50.10339 | 14.26691 | 1170 ft | 2 kts | 118° |
| 2026-04-10 17:29 | 50.10346 | 14.26717 | 1169 ft | 3 kts | 46° |
| 2026-04-10 17:29 | 50.10362 | 14.26738 | 1172 ft | 1 kts | 36° |
| 2026-04-10 17:29 | 50.10364 | 14.26741 | 1171 ft | 0 kts | 36° |